createdAt,value
2023-01-25T00:00:52.842Z,-2.00
2023-01-25T00:03:22.545Z,-2.10
2023-01-25T00:05:49.615Z,-2.10
2023-01-25T00:08:17.100Z,-2.00
2023-01-25T00:10:44.290Z,-2.00
2023-01-25T00:13:11.136Z,-2.00
2023-01-25T00:15:38.248Z,-2.00
2023-01-25T00:18:05.451Z,-1.90
2023-01-25T00:20:34.714Z,-2.00
2023-01-25T00:23:01.823Z,-2.00
2023-01-25T00:25:29.008Z,-2.00
2023-01-25T00:27:58.447Z,-2.00
2023-01-25T00:30:25.443Z,-2.10
2023-01-25T00:33:07.605Z,-2.10
2023-01-25T00:35:37.147Z,-2.10
2023-01-25T00:38:22.012Z,-2.10
2023-01-25T00:40:49.987Z,-2.10
2023-01-25T00:43:20.202Z,-2.10
2023-01-25T00:45:47.377Z,-2.10
2023-01-25T00:48:16.290Z,-2.10
2023-01-25T00:50:43.421Z,-2.10
2023-01-25T00:53:10.563Z,-2.10
2023-01-25T00:55:39.632Z,-2.10
2023-01-25T00:58:06.507Z,-2.20
2023-01-25T01:00:33.647Z,-2.20
2023-01-25T01:03:00.759Z,-2.10
2023-01-25T01:05:29.483Z,-2.20
2023-01-25T01:07:56.893Z,-2.20
2023-01-25T01:10:26.488Z,-2.20
2023-01-25T01:12:53.267Z,-2.20
2023-01-25T01:15:20.515Z,-2.10
2023-01-25T01:17:47.416Z,-2.20
2023-01-25T01:20:14.603Z,-2.20
2023-01-25T01:22:41.457Z,-2.10
2023-01-25T01:25:09.343Z,-2.10
2023-01-25T01:27:37.189Z,-2.10
2023-01-25T01:30:07.313Z,-2.20
2023-01-25T01:32:39.264Z,-2.20
2023-01-25T01:35:07.284Z,-2.20
2023-01-25T01:37:34.261Z,-2.20
2023-01-25T01:40:01.503Z,-2.20
2023-01-25T01:42:30.564Z,-2.10
2023-01-25T01:44:58.181Z,-2.20
2023-01-25T01:47:30.993Z,-2.20
2023-01-25T01:50:06.427Z,-2.20
2023-01-25T01:52:37.554Z,-2.20
2023-01-25T01:55:18.180Z,-2.20
2023-01-25T01:57:50.986Z,-2.20
2023-01-25T02:00:23.548Z,-2.20
2023-01-25T02:02:52.223Z,-2.30
2023-01-25T02:05:47.583Z,-2.30
2023-01-25T02:08:18.162Z,-2.30
2023-01-25T02:10:46.437Z,-2.30
2023-01-25T02:13:13.856Z,-2.30
2023-01-25T02:15:48.346Z,-2.30
2023-01-25T02:18:15.895Z,-2.30
2023-01-25T02:20:54.366Z,-2.30
2023-01-25T02:23:33.998Z,-2.30
2023-01-25T02:26:07.076Z,-2.30
2023-01-25T02:28:47.175Z,-2.30
2023-01-25T02:31:14.590Z,-2.30
2023-01-25T02:33:41.806Z,-2.30
2023-01-25T02:36:20.179Z,-2.30
2023-01-25T02:39:08.673Z,-2.30
2023-01-25T02:41:38.622Z,-2.30
2023-01-25T02:44:12.895Z,-2.30
2023-01-25T02:46:42.623Z,-2.30
2023-01-25T02:49:12.213Z,-2.30
2023-01-25T02:51:44.836Z,-2.30
2023-01-25T02:54:13.207Z,-2.40
2023-01-25T02:56:43.133Z,-2.40
2023-01-25T02:59:13.763Z,-2.30
2023-01-25T03:01:45.662Z,-2.30
2023-01-25T03:04:12.917Z,-2.30
2023-01-25T03:06:40.473Z,-2.40
2023-01-25T03:09:12.605Z,-2.50
2023-01-25T03:11:44.497Z,-2.50
2023-01-25T03:14:11.834Z,-2.40
2023-01-25T03:16:39.430Z,-2.40
2023-01-25T03:19:11.045Z,-2.40
2023-01-25T03:21:40.978Z,-2.40
2023-01-25T03:24:10.094Z,-2.50
2023-01-25T03:27:02.240Z,-2.50
2023-01-25T03:29:58.631Z,-2.50
2023-01-25T03:32:29.797Z,-2.50
2023-01-25T03:35:04.660Z,-2.50
2023-01-25T03:37:31.891Z,-2.50
2023-01-25T03:40:02.092Z,-2.50
2023-01-25T03:42:30.598Z,-2.60
2023-01-25T03:44:59.156Z,-2.50
2023-01-25T03:47:29.050Z,-2.60
2023-01-25T03:49:56.234Z,-2.50
2023-01-25T03:52:24.876Z,-2.60
2023-01-25T03:54:52.058Z,-2.50
2023-01-25T03:57:19.490Z,-2.50
2023-01-25T03:59:54.710Z,-2.50
2023-01-25T04:02:21.623Z,-2.50
2023-01-25T04:04:51.302Z,-2.50
2023-01-25T04:07:20.391Z,-2.50
2023-01-25T04:09:52.131Z,-2.50
2023-01-25T04:12:22.845Z,-2.60
2023-01-25T04:14:49.927Z,-2.50
2023-01-25T04:17:21.552Z,-2.50
2023-01-25T04:19:52.213Z,-2.50
2023-01-25T04:22:25.154Z,-2.50
2023-01-25T04:24:54.716Z,-2.40
2023-01-25T04:27:21.880Z,-2.50
2023-01-25T04:30:15.530Z,-2.50
2023-01-25T04:32:45.112Z,-2.50
2023-01-25T04:35:23.192Z,-2.60
2023-01-25T04:37:55.455Z,-2.60
2023-01-25T04:40:24.724Z,-2.50
2023-01-25T04:42:51.877Z,-2.60
2023-01-25T04:45:21.115Z,-2.50
2023-01-25T04:47:49.057Z,-2.40
2023-01-25T04:50:16.932Z,-2.50
2023-01-25T04:52:46.008Z,-2.50
2023-01-25T04:55:13.273Z,-2.50
2023-01-25T04:57:43.761Z,-2.50
2023-01-25T05:00:11.626Z,-2.60
2023-01-25T05:02:39.925Z,-2.50
2023-01-25T05:05:11.068Z,-2.60
2023-01-25T05:07:38.247Z,-2.60
2023-01-25T05:10:06.039Z,-2.50
2023-01-25T05:12:33.235Z,-2.40
2023-01-25T05:15:05.962Z,-2.40
2023-01-25T05:17:33.267Z,-2.40
2023-01-25T05:20:00.250Z,-2.50
2023-01-25T05:22:27.365Z,-2.50
2023-01-25T05:24:56.816Z,-2.50
2023-01-25T05:27:28.127Z,-2.30
2023-01-25T05:29:56.157Z,-2.40
2023-01-25T05:32:30.853Z,-2.40
2023-01-25T05:35:00.782Z,-2.50
2023-01-25T05:37:31.270Z,-2.70
2023-01-25T05:40:04.317Z,-2.70
2023-01-25T05:42:36.210Z,-2.70
2023-01-25T05:45:11.292Z,-2.70
2023-01-25T05:47:39.789Z,-2.80
2023-01-25T05:50:08.798Z,-2.80
2023-01-25T05:53:00.805Z,-2.80
2023-01-25T05:55:29.181Z,-2.90
2023-01-25T05:57:58.528Z,-2.90
2023-01-25T06:00:25.872Z,-2.90
2023-01-25T06:02:56.889Z,-2.90
2023-01-25T06:05:25.621Z,-2.90
2023-01-25T06:07:52.776Z,-2.90
2023-01-25T06:10:22.470Z,-2.90
2023-01-25T06:12:53.216Z,-3.00
2023-01-25T06:15:22.609Z,-2.90
2023-01-25T06:17:52.646Z,-3.10
2023-01-25T06:20:38.548Z,-3.10
2023-01-25T06:23:05.729Z,-3.00
2023-01-25T06:25:32.626Z,-2.90
2023-01-25T06:27:59.526Z,-2.90
2023-01-25T06:30:28.821Z,-3.00
2023-01-25T06:32:58.954Z,-3.00
2023-01-25T06:35:28.911Z,-3.00
2023-01-25T06:37:59.157Z,-3.00
2023-01-25T06:40:27.296Z,-2.90
2023-01-25T06:42:55.994Z,-2.90
2023-01-25T06:45:23.200Z,-2.80
2023-01-25T06:47:52.443Z,-2.70
2023-01-25T06:50:19.571Z,-2.60
2023-01-25T06:52:55.807Z,-2.60
2023-01-25T06:55:24.290Z,-2.70
2023-01-25T06:57:51.081Z,-2.80
2023-01-25T07:00:21.286Z,-2.80
2023-01-25T07:02:48.573Z,-2.90
2023-01-25T07:05:15.785Z,-2.90
2023-01-25T07:07:46.511Z,-3.10
2023-01-25T07:10:15.935Z,-2.90
2023-01-25T07:12:43.088Z,-2.90
2023-01-25T07:15:10.848Z,-3.00
2023-01-25T07:17:38.309Z,-3.00
2023-01-25T07:20:06.001Z,-3.00
2023-01-25T07:22:35.076Z,-3.10
2023-01-25T07:25:02.561Z,-3.10
2023-01-25T07:27:37.105Z,-3.10
2023-01-25T07:30:07.718Z,-3.10
2023-01-25T07:32:34.936Z,-3.10
2023-01-25T07:35:04.318Z,-3.10
2023-01-25T07:37:31.462Z,-3.10
2023-01-25T07:39:58.499Z,-3.10
2023-01-25T07:42:25.700Z,-3.10
2023-01-25T07:45:09.419Z,-3.20
2023-01-25T07:47:37.808Z,-3.10
2023-01-25T07:50:05.654Z,-3.10
2023-01-25T07:52:35.127Z,-3.10
2023-01-25T07:55:02.112Z,-3.10
2023-01-25T07:57:28.903Z,-3.10
2023-01-25T07:59:55.883Z,-2.90
2023-01-25T08:02:23.642Z,-2.80
2023-01-25T08:04:51.307Z,-2.80
2023-01-25T08:07:18.223Z,-2.60
2023-01-25T08:09:48.071Z,-2.60
2023-01-25T08:12:18.822Z,-2.50
2023-01-25T08:14:50.643Z,-2.40
2023-01-25T08:17:17.970Z,-2.40
2023-01-25T08:19:44.768Z,-2.50
2023-01-25T08:22:13.585Z,-2.60
2023-01-25T08:24:43.295Z,-2.70
2023-01-25T08:27:10.611Z,-2.80
2023-01-25T08:29:37.772Z,-2.80
2023-01-25T08:32:06.550Z,-2.80
2023-01-25T08:34:34.171Z,-2.80
2023-01-25T08:37:01.440Z,-2.90
2023-01-25T08:39:28.790Z,-2.80
2023-01-25T08:41:56.048Z,-2.80
2023-01-25T08:44:24.514Z,-2.60
2023-01-25T08:46:51.878Z,-2.50
2023-01-25T08:49:19.217Z,-2.50
2023-01-25T08:51:50.558Z,-2.60
2023-01-25T08:54:17.756Z,-2.60
2023-01-25T08:56:44.813Z,-2.60
2023-01-25T08:59:14.506Z,-2.70
2023-01-25T09:01:41.892Z,-2.70
2023-01-25T09:04:09.141Z,-2.80
2023-01-25T09:06:36.437Z,-2.80
2023-01-25T09:09:04.993Z,-2.80
2023-01-25T09:11:33.930Z,-2.90
2023-01-25T09:14:01.156Z,-3.00
2023-01-25T09:16:30.197Z,-3.00
2023-01-25T09:18:59.166Z,-2.90
2023-01-25T09:21:29.328Z,-3.00
2023-01-25T09:24:06.109Z,-2.90
2023-01-25T09:26:39.133Z,-3.00
2023-01-25T09:29:08.224Z,-2.90
2023-01-25T09:31:37.246Z,-2.90
2023-01-25T09:34:15.072Z,-2.90
2023-01-25T09:36:42.506Z,-2.90
2023-01-25T09:39:13.549Z,-2.80
2023-01-25T09:42:00.637Z,-2.70
2023-01-25T09:44:59.105Z,-2.60
2023-01-25T09:47:29.035Z,-2.50
2023-01-25T09:49:59.340Z,-2.50
2023-01-25T09:53:05.115Z,-2.50
2023-01-25T09:55:37.834Z,-2.30
2023-01-25T09:58:10.440Z,-2.20
2023-01-25T10:00:42.418Z,-2.00
2023-01-25T10:03:25.475Z,-2.00
2023-01-25T10:05:56.906Z,-2.00
2023-01-25T10:08:39.220Z,-2.00
2023-01-25T10:11:16.780Z,-2.10
2023-01-25T10:13:44.502Z,-2.10
2023-01-25T10:16:37.855Z,-2.00
2023-01-25T10:19:23.044Z,-1.80
2023-01-25T10:22:15.203Z,-1.80
2023-01-25T10:24:56.945Z,-1.80
2023-01-25T10:27:32.353Z,-1.80
2023-01-25T10:30:02.409Z,-1.90
2023-01-25T10:32:37.554Z,-2.10
2023-01-25T10:35:42.614Z,-2.10
2023-01-25T10:38:27.415Z,-2.10
2023-01-25T10:41:12.525Z,-2.10
2023-01-25T10:43:42.183Z,-2.10
2023-01-25T10:46:23.657Z,-2.10
2023-01-25T10:48:52.997Z,-2.00
2023-01-25T10:51:33.944Z,-1.80
2023-01-25T10:54:05.956Z,-1.90
2023-01-25T10:56:35.827Z,-1.90
2023-01-25T10:59:15.629Z,-1.80
2023-01-25T11:01:43.319Z,-1.80
2023-01-25T11:04:48.708Z,-1.70
2023-01-25T11:07:31.474Z,-1.80
2023-01-25T11:09:58.707Z,-1.80
2023-01-25T11:12:25.836Z,-1.90
2023-01-25T11:14:52.965Z,-2.00
2023-01-25T11:17:32.111Z,-2.10
2023-01-25T11:20:18.777Z,-2.10
2023-01-25T11:22:55.216Z,-2.30
2023-01-25T11:25:25.305Z,-2.40
2023-01-25T11:27:52.621Z,-2.40
2023-01-25T11:30:22.286Z,-2.30
2023-01-25T11:32:49.584Z,-2.30
2023-01-25T11:35:32.962Z,-2.30
2023-01-25T11:38:11.561Z,-2.40
2023-01-25T11:41:05.000Z,-2.30
2023-01-25T11:43:38.632Z,-2.50
2023-01-25T11:46:41.594Z,-2.60
2023-01-25T11:49:14.903Z,-2.40
2023-01-25T11:51:54.103Z,-2.40
2023-01-25T11:54:51.037Z,-2.40
2023-01-25T11:57:27.404Z,-2.30
2023-01-25T12:00:29.768Z,-2.40
2023-01-25T12:03:08.886Z,-2.40
2023-01-25T12:06:11.433Z,-2.50
2023-01-25T12:08:50.785Z,-2.50
2023-01-25T12:11:36.218Z,-2.60
2023-01-25T12:14:18.443Z,-2.70
2023-01-25T12:17:14.819Z,-2.60
2023-01-25T12:20:00.891Z,-2.60
2023-01-25T12:22:32.839Z,-2.60
2023-01-25T12:25:45.586Z,-2.60
2023-01-25T12:28:21.377Z,-2.50
2023-01-25T12:31:17.411Z,-2.70
2023-01-25T12:34:33.364Z,-2.60
2023-01-25T12:37:20.965Z,-2.60
2023-01-25T12:40:15.188Z,-2.60
2023-01-25T12:42:47.791Z,-2.50
2023-01-25T12:45:24.335Z,-2.50
2023-01-25T12:47:58.537Z,-2.50
2023-01-25T12:50:36.000Z,-2.40
2023-01-25T12:53:33.695Z,-2.30
2023-01-25T12:56:02.113Z,-2.30
2023-01-25T12:58:45.075Z,-2.30
2023-01-25T13:01:19.056Z,-2.40
2023-01-25T13:04:02.067Z,-2.30
2023-01-25T13:06:43.747Z,-2.20
2023-01-25T13:09:31.338Z,-2.30
2023-01-25T13:12:01.619Z,-2.40
2023-01-25T13:14:36.324Z,-2.40
2023-01-25T13:17:20.551Z,-2.40
2023-01-25T13:19:47.935Z,-2.50
2023-01-25T13:22:37.052Z,-2.70
2023-01-25T13:25:04.271Z,-2.70
2023-01-25T13:27:36.911Z,-2.70
2023-01-25T13:30:16.131Z,-2.80
2023-01-25T13:33:10.867Z,-2.90
2023-01-25T13:35:45.362Z,-2.80
2023-01-25T13:38:12.270Z,-2.80
2023-01-25T13:40:40.530Z,-2.80
2023-01-25T13:43:22.137Z,-2.80
2023-01-25T13:46:07.113Z,-2.80
2023-01-25T13:48:38.228Z,-2.80
2023-01-25T13:51:11.268Z,-2.90
2023-01-25T13:53:39.739Z,-3.00
2023-01-25T13:56:26.432Z,-2.90
2023-01-25T13:58:53.307Z,-2.60
2023-01-25T14:01:23.657Z,-2.70
2023-01-25T14:03:52.169Z,-2.90
2023-01-25T14:06:25.475Z,-3.00
2023-01-25T14:08:54.464Z,-3.00
2023-01-25T14:11:33.033Z,-2.90
2023-01-25T14:14:02.860Z,-3.00
2023-01-25T14:16:31.872Z,-3.00
2023-01-25T14:19:26.613Z,-3.00
2023-01-25T14:22:25.763Z,-3.10
2023-01-25T14:25:18.716Z,-3.20
2023-01-25T14:27:54.413Z,-3.20
2023-01-25T14:30:27.760Z,-3.20
2023-01-25T14:33:00.255Z,-3.20
2023-01-25T14:35:49.274Z,-3.20
2023-01-25T14:38:30.955Z,-3.20
2023-01-25T14:41:29.887Z,-3.20
2023-01-25T14:44:02.347Z,-3.20
2023-01-25T14:46:29.136Z,-3.00
2023-01-25T14:49:20.136Z,-2.90
2023-01-25T14:51:55.892Z,-2.80
2023-01-25T14:54:28.441Z,-2.60
2023-01-25T14:57:07.745Z,-2.70
2023-01-25T14:59:34.828Z,-2.60
2023-01-25T15:02:11.776Z,-2.70
2023-01-25T15:04:39.515Z,-2.80
2023-01-25T15:07:17.578Z,-2.80
2023-01-25T15:10:14.654Z,-2.90
2023-01-25T15:12:41.784Z,-2.90
2023-01-25T15:15:24.089Z,-2.80
2023-01-25T15:17:51.835Z,-2.80
2023-01-25T15:20:38.927Z,-2.80
2023-01-25T15:23:25.547Z,-2.90
2023-01-25T15:25:54.063Z,-3.00
2023-01-25T15:28:22.476Z,-2.90
2023-01-25T15:30:50.004Z,-2.90
2023-01-25T15:33:23.816Z,-3.00
2023-01-25T15:35:51.801Z,-2.90
2023-01-25T15:38:19.515Z,-2.90
2023-01-25T15:40:46.859Z,-2.90
2023-01-25T15:43:17.967Z,-3.10
2023-01-25T15:45:49.639Z,-3.20
2023-01-25T15:48:26.247Z,-3.20
2023-01-25T15:50:55.744Z,-3.10
2023-01-25T15:53:22.815Z,-3.20
2023-01-25T15:55:55.378Z,-3.20
2023-01-25T15:58:34.220Z,-3.20
2023-01-25T16:01:06.257Z,-3.10
2023-01-25T16:03:34.897Z,-3.00
2023-01-25T16:06:18.900Z,-3.10
2023-01-25T16:08:46.079Z,-3.20
2023-01-25T16:11:16.154Z,-3.30
2023-01-25T16:13:43.249Z,-3.30
2023-01-25T16:16:25.029Z,-3.40
2023-01-25T16:18:54.654Z,-3.50
2023-01-25T16:21:21.658Z,-3.40
2023-01-25T16:23:48.512Z,-3.50
2023-01-25T16:26:24.731Z,-3.60
2023-01-25T16:28:52.215Z,-3.50
2023-01-25T16:31:31.803Z,-3.50
2023-01-25T16:34:01.007Z,-3.50
2023-01-25T16:36:37.469Z,-3.40
2023-01-25T16:39:32.459Z,-3.40
2023-01-25T16:42:01.794Z,-3.50
2023-01-25T16:44:28.898Z,-3.50
2023-01-25T16:46:56.411Z,-3.50
2023-01-25T16:49:30.426Z,-3.50
2023-01-25T16:52:02.200Z,-3.40
2023-01-25T16:54:29.309Z,-3.30
2023-01-25T16:56:59.920Z,-3.30
2023-01-25T16:59:30.935Z,-3.20
2023-01-25T17:01:58.420Z,-3.20
2023-01-25T17:04:25.646Z,-3.30
2023-01-25T17:06:53.313Z,-3.40
2023-01-25T17:09:25.467Z,-3.50
2023-01-25T17:11:54.327Z,-3.60
2023-01-25T17:14:22.599Z,-3.60
2023-01-25T17:16:52.168Z,-3.60
2023-01-25T17:19:20.475Z,-3.60
2023-01-25T17:21:49.971Z,-3.60
2023-01-25T17:24:21.271Z,-3.50
2023-01-25T17:26:48.475Z,-3.40
2023-01-25T17:29:15.679Z,-3.40
2023-01-25T17:31:45.597Z,-3.40
2023-01-25T17:34:17.208Z,-3.40
2023-01-25T17:36:45.400Z,-3.40
2023-01-25T17:39:15.625Z,-3.40
2023-01-25T17:41:52.647Z,-3.30
2023-01-25T17:44:22.438Z,-3.50
2023-01-25T17:46:50.782Z,-3.50
2023-01-25T17:49:18.369Z,-3.60
2023-01-25T17:51:48.535Z,-3.60
2023-01-25T17:54:19.938Z,-3.60
2023-01-25T17:56:48.954Z,-3.60
2023-01-25T17:59:19.585Z,-3.60
2023-01-25T18:01:46.772Z,-3.60
2023-01-25T18:04:17.803Z,-3.60
2023-01-25T18:06:45.011Z,-3.70
2023-01-25T18:09:14.168Z,-3.70
2023-01-25T18:11:48.183Z,-3.60
2023-01-25T18:14:17.147Z,-3.70
2023-01-25T18:16:44.785Z,-3.70
2023-01-25T18:19:14.429Z,-3.70
2023-01-25T18:21:42.621Z,-3.70
2023-01-25T18:24:27.410Z,-3.70
2023-01-25T18:27:12.819Z,-3.80
2023-01-25T18:29:44.581Z,-3.70
2023-01-25T18:32:33.158Z,-3.70
2023-01-25T18:35:00.540Z,-3.70
2023-01-25T18:37:33.536Z,-3.80
2023-01-25T18:40:00.541Z,-3.80
2023-01-25T18:42:28.103Z,-3.70
2023-01-25T18:44:55.243Z,-3.70
2023-01-25T18:47:26.628Z,-3.80
2023-01-25T18:49:54.208Z,-3.90
2023-01-25T18:52:26.059Z,-3.80
2023-01-25T18:54:55.849Z,-3.90
2023-01-25T18:57:26.523Z,-3.90
2023-01-25T18:59:54.451Z,-4.00
2023-01-25T19:02:23.523Z,-3.90
2023-01-25T19:04:51.120Z,-3.90
2023-01-25T19:07:18.076Z,-3.90
2023-01-25T19:09:45.081Z,-3.90
2023-01-25T19:12:14.326Z,-3.90
2023-01-25T19:14:41.473Z,-4.00
2023-01-25T19:17:09.136Z,-4.00
2023-01-25T19:19:36.727Z,-4.00
2023-01-25T19:22:05.365Z,-4.00
2023-01-25T19:24:32.300Z,-3.80
2023-01-25T19:26:59.733Z,-3.80
2023-01-25T19:29:27.628Z,-3.70
2023-01-25T19:31:57.045Z,-3.70
2023-01-25T19:34:26.848Z,-3.70
2023-01-25T19:36:54.134Z,-3.60
2023-01-25T19:39:24.079Z,-3.60
2023-01-25T19:41:53.634Z,-3.60
2023-01-25T19:44:23.149Z,-3.60
2023-01-25T19:46:51.752Z,-3.70
2023-01-25T19:49:20.648Z,-3.60
2023-01-25T19:51:53.454Z,-3.70
2023-01-25T19:54:21.976Z,-3.80
2023-01-25T19:56:49.945Z,-3.90
2023-01-25T19:59:21.618Z,-3.70
2023-01-25T20:01:49.115Z,-3.80
2023-01-25T20:04:20.148Z,-3.80
2023-01-25T20:06:48.267Z,-3.70
2023-01-25T20:09:17.656Z,-3.70
2023-01-25T20:11:46.602Z,-3.60
2023-01-25T20:14:22.882Z,-3.50
2023-01-25T20:16:53.021Z,-3.60
2023-01-25T20:19:20.391Z,-3.50
2023-01-25T20:21:47.327Z,-3.60
2023-01-25T20:24:14.598Z,-3.70
2023-01-25T20:26:43.203Z,-3.80
2023-01-25T20:29:11.711Z,-3.90
2023-01-25T20:31:43.820Z,-3.90
2023-01-25T20:34:13.622Z,-3.90
2023-01-25T20:36:41.627Z,-3.90
2023-01-25T20:39:12.575Z,-3.90
2023-01-25T20:41:42.505Z,-4.00
2023-01-25T20:44:12.728Z,-4.00
2023-01-25T20:46:43.286Z,-3.90
2023-01-25T20:49:15.566Z,-4.00
2023-01-25T20:51:45.869Z,-4.00
2023-01-25T20:54:13.165Z,-4.00
2023-01-25T20:56:43.335Z,-4.00
2023-01-25T20:59:10.639Z,-4.00
2023-01-25T21:01:37.900Z,-4.00
2023-01-25T21:04:07.079Z,-4.00
2023-01-25T21:06:37.938Z,-4.00
2023-01-25T21:09:05.727Z,-4.00
2023-01-25T21:11:33.691Z,-4.00
2023-01-25T21:14:05.700Z,-4.00
2023-01-25T21:16:34.859Z,-4.20
2023-01-25T21:19:05.694Z,-4.10
2023-01-25T21:21:35.049Z,-4.10
2023-01-25T21:24:05.550Z,-4.20
2023-01-25T21:26:33.982Z,-4.20
2023-01-25T21:29:02.388Z,-4.20
2023-01-25T21:31:35.450Z,-4.20
2023-01-25T21:34:06.203Z,-4.20
2023-01-25T21:36:33.560Z,-4.20
2023-01-25T21:39:00.917Z,-4.20
2023-01-25T21:41:30.874Z,-4.20
2023-01-25T21:44:19.760Z,-4.20
2023-01-25T21:47:08.621Z,-4.10
2023-01-25T21:49:52.513Z,-4.10
2023-01-25T21:52:19.763Z,-4.10
2023-01-25T21:54:46.820Z,-4.10
2023-01-25T21:57:14.042Z,-4.30
2023-01-25T21:59:43.265Z,-4.20
2023-01-25T22:02:14.799Z,-4.30
2023-01-25T22:04:44.384Z,-4.20
2023-01-25T22:07:14.400Z,-4.30
2023-01-25T22:09:41.210Z,-4.20
2023-01-25T22:12:08.073Z,-4.20
2023-01-25T22:14:37.699Z,-4.20
2023-01-25T22:17:05.718Z,-4.20
2023-01-25T22:19:33.329Z,-4.10
2023-01-25T22:22:00.264Z,-4.10
2023-01-25T22:24:27.468Z,-4.00
2023-01-25T22:27:05.584Z,-4.00
2023-01-25T22:29:35.788Z,-4.00
2023-01-25T22:32:04.136Z,-4.00
2023-01-25T22:34:31.312Z,-4.10
2023-01-25T22:36:59.626Z,-4.10
2023-01-25T22:39:26.613Z,-4.00
2023-01-25T22:41:53.782Z,-4.10
2023-01-25T22:44:20.932Z,-4.00
2023-01-25T22:46:50.884Z,-4.00
2023-01-25T22:49:17.883Z,-4.10
2023-01-25T22:51:45.331Z,-4.00
2023-01-25T22:54:12.506Z,-3.90
2023-01-25T22:56:39.881Z,-4.00
2023-01-25T22:59:08.323Z,-4.00
2023-01-25T23:01:35.633Z,-4.00
2023-01-25T23:04:05.315Z,-4.00
2023-01-25T23:06:35.111Z,-4.10
2023-01-25T23:09:04.790Z,-4.10
2023-01-25T23:11:38.123Z,-4.10
2023-01-25T23:14:30.947Z,-4.20
2023-01-25T23:17:18.845Z,-4.20
2023-01-25T23:19:48.077Z,-4.20
2023-01-25T23:22:15.266Z,-4.20
2023-01-25T23:24:43.496Z,-4.20
2023-01-25T23:27:10.603Z,-4.20
2023-01-25T23:29:37.373Z,-4.30
2023-01-25T23:32:05.166Z,-4.30
2023-01-25T23:34:37.046Z,-4.20
2023-01-25T23:37:04.010Z,-4.20
2023-01-25T23:39:34.124Z,-4.00
2023-01-25T23:42:01.099Z,-4.00
2023-01-25T23:44:28.509Z,-4.00
2023-01-25T23:46:55.405Z,-4.00
2023-01-25T23:49:22.509Z,-4.10
2023-01-25T23:51:49.332Z,-4.00
2023-01-25T23:54:16.495Z,-3.90
2023-01-25T23:56:45.499Z,-3.80
2023-01-25T23:59:12.577Z,-3.80
